createdAt,value
2022-08-22T00:01:04.416Z,100107.28
2022-08-22T00:03:07.041Z,100110.34
2022-08-22T00:04:07.996Z,100101.31
2022-08-22T00:07:18.332Z,100101.38
2022-08-22T00:10:27.875Z,100099.28
2022-08-22T00:14:01.651Z,100092.94
2022-08-22T00:17:09.499Z,100094.50
2022-08-22T00:20:13.884Z,100090.91
2022-08-22T00:23:18.538Z,100093.63
2022-08-22T00:26:48.984Z,100095.50
2022-08-22T00:30:00.309Z,100097.50
2022-08-22T00:33:05.227Z,100085.28
2022-08-22T00:36:23.805Z,100081.38
2022-08-22T00:39:34.056Z,100085.88
2022-08-22T00:43:04.192Z,100084.47
2022-08-22T00:46:20.056Z,100092.34
2022-08-22T00:49:33.625Z,100085.19
2022-08-22T00:53:00.209Z,100084.72
2022-08-22T00:56:13.817Z,100083.91
2022-08-22T00:59:24.005Z,100083.28
2022-08-22T01:03:02.144Z,100079.72
2022-08-22T01:06:12.456Z,100083.75
2022-08-22T01:09:23.710Z,100087.41
2022-08-22T01:12:46.889Z,100083.00
2022-08-22T01:15:53.269Z,100080.16
2022-08-22T01:19:07.154Z,100077.06
2022-08-22T01:22:30.153Z,100079.81
2022-08-22T01:25:56.160Z,100074.75
2022-08-22T01:29:19.459Z,100085.13
2022-08-22T01:32:53.402Z,100074.19
2022-08-22T01:36:16.292Z,100069.97
2022-08-22T01:39:55.711Z,100060.72
2022-08-22T01:43:51.339Z,100066.13
2022-08-22T01:46:58.402Z,100064.84
2022-08-22T01:50:38.379Z,100062.09
2022-08-22T01:53:56.902Z,100061.63
2022-08-22T01:57:02.428Z,100064.22
2022-08-22T02:00:17.694Z,100056.84
2022-08-22T02:03:53.592Z,100064.75
2022-08-22T02:07:03.850Z,100066.50
2022-08-22T02:10:26.764Z,100063.84
2022-08-22T02:13:46.791Z,100075.94
2022-08-22T02:16:56.452Z,100056.59
2022-08-22T02:20:17.971Z,100071.44
2022-08-22T02:23:46.821Z,100069.78
2022-08-22T02:27:29.875Z,100071.34
2022-08-22T02:30:42.333Z,100062.56
2022-08-22T02:33:46.560Z,100067.25
2022-08-22T02:37:08.678Z,100069.16
2022-08-22T02:40:34.060Z,100072.91
2022-08-22T02:43:57.506Z,100065.91
2022-08-22T02:47:09.831Z,100071.31
2022-08-22T02:50:18.533Z,100074.00
2022-08-22T02:53:49.780Z,100080.06
2022-08-22T02:57:05.747Z,100066.28
2022-08-22T03:00:31.742Z,100067.00
2022-08-22T03:03:41.448Z,100068.00
2022-08-22T03:07:00.071Z,100064.31
2022-08-22T03:10:18.907Z,100072.06
2022-08-22T03:14:03.657Z,100064.25
2022-08-22T03:17:26.525Z,100064.06
2022-08-22T03:21:12.429Z,100065.34
2022-08-22T03:24:43.135Z,100060.28
2022-08-22T03:28:00.124Z,100062.22
2022-08-22T03:31:17.762Z,100062.94
2022-08-22T03:34:26.980Z,100063.47
2022-08-22T03:37:31.400Z,100064.66
2022-08-22T03:40:49.149Z,100067.03
2022-08-22T03:44:30.449Z,100068.38
2022-08-22T03:47:51.469Z,100071.56
2022-08-22T03:51:13.470Z,100077.66
2022-08-22T03:54:41.809Z,100081.63
2022-08-22T03:58:27.979Z,100080.72
2022-08-22T04:01:44.933Z,100079.91
2022-08-22T04:05:19.214Z,100083.47
2022-08-22T04:08:31.743Z,100089.09
2022-08-22T04:11:51.567Z,100088.47
2022-08-22T04:15:21.090Z,100083.16
2022-08-22T04:19:08.034Z,100089.50
2022-08-22T04:22:12.555Z,100091.94
2022-08-22T04:25:19.916Z,100096.59
2022-08-22T04:28:34.317Z,100092.94
2022-08-22T04:31:48.263Z,100093.25
2022-08-22T04:34:59.634Z,100087.03
2022-08-22T04:38:04.261Z,100090.00
2022-08-22T04:41:11.047Z,100084.47
2022-08-22T04:44:30.836Z,100096.38
2022-08-22T04:48:08.222Z,100092.53
2022-08-22T04:51:22.157Z,100101.06
2022-08-22T04:54:51.304Z,100097.13
2022-08-22T04:58:16.962Z,100098.84
2022-08-22T05:01:39.316Z,100104.56
2022-08-22T05:04:49.746Z,100100.91
2022-08-22T05:08:03.194Z,100106.22
2022-08-22T05:11:07.536Z,100107.31
2022-08-22T05:14:15.324Z,100110.03
2022-08-22T05:17:22.300Z,100106.63
2022-08-22T05:20:27.452Z,100103.25
2022-08-22T05:23:38.572Z,100109.16
2022-08-22T05:26:44.265Z,100103.03
2022-08-22T05:29:50.292Z,100092.34
2022-08-22T05:32:57.112Z,100104.00
2022-08-22T05:36:07.276Z,100097.13
2022-08-22T05:39:11.614Z,100099.88
2022-08-22T05:42:22.101Z,100097.44
2022-08-22T05:45:26.372Z,100096.44
2022-08-22T05:48:57.265Z,100098.16
2022-08-22T05:52:17.005Z,100102.03
2022-08-22T05:55:30.353Z,100096.41
2022-08-22T05:58:42.953Z,100094.09
2022-08-22T06:02:05.539Z,100104.31
2022-08-22T06:05:11.907Z,100101.75
2022-08-22T06:08:34.442Z,100107.97
2022-08-22T06:12:00.467Z,100113.34
2022-08-22T06:15:23.212Z,100127.06
2022-08-22T06:18:26.886Z,100119.59
2022-08-22T06:21:39.233Z,100116.44
2022-08-22T06:24:41.390Z,100121.13
2022-08-22T06:27:46.218Z,100124.44
2022-08-22T06:30:51.030Z,100138.69
2022-08-22T06:34:04.706Z,100121.06
2022-08-22T06:37:12.275Z,100128.69
2022-08-22T06:40:16.698Z,100139.22
2022-08-22T06:43:18.790Z,100143.09
2022-08-22T06:46:24.638Z,100145.22
2022-08-22T06:49:29.406Z,100145.81
2022-08-22T06:52:34.581Z,100148.22
2022-08-22T06:55:40.309Z,100145.88
2022-08-22T06:58:47.736Z,100140.72
2022-08-22T07:02:07.016Z,100146.50
2022-08-22T07:05:16.591Z,100148.91
2022-08-22T07:08:21.542Z,100149.81
2022-08-22T07:11:28.029Z,100158.81
2022-08-22T07:14:38.590Z,100155.88
2022-08-22T07:17:53.560Z,100155.47
2022-08-22T07:21:08.114Z,100155.25
2022-08-22T07:24:16.998Z,100157.91
2022-08-22T07:27:26.109Z,100167.03
2022-08-22T07:30:40.857Z,100164.13
2022-08-22T07:33:55.107Z,100167.75
2022-08-22T07:37:03.515Z,100167.69
2022-08-22T07:40:23.705Z,100173.19
2022-08-22T07:43:34.339Z,100172.34
2022-08-22T07:46:48.082Z,100175.00
2022-08-22T07:49:56.635Z,100175.16
2022-08-22T07:53:08.686Z,100177.22
2022-08-22T07:56:19.212Z,100178.31
2022-08-22T07:59:22.254Z,100172.16
2022-08-22T08:02:25.127Z,100174.88
2022-08-22T08:05:32.358Z,100177.41
2022-08-22T08:08:36.672Z,100177.78
2022-08-22T08:11:40.423Z,100180.00
2022-08-22T08:14:45.406Z,100176.00
2022-08-22T08:17:52.360Z,100186.16
2022-08-22T08:21:09.105Z,100181.44
2022-08-22T08:24:18.059Z,100180.91
2022-08-22T08:27:44.975Z,100182.25
2022-08-22T08:31:07.419Z,100176.84
2022-08-22T08:34:15.346Z,100180.06
2022-08-22T08:37:22.363Z,100179.22
2022-08-22T08:40:35.643Z,100171.50
2022-08-22T08:43:49.312Z,100177.31
2022-08-22T08:47:00.317Z,100169.56
2022-08-22T08:50:17.486Z,100176.19
2022-08-22T08:57:18.733Z,100167.78
2022-08-22T09:00:31.826Z,100167.78
2022-08-22T09:04:14.993Z,100169.34
2022-08-22T09:07:38.867Z,100170.38
2022-08-22T09:10:49.140Z,100172.75
2022-08-22T09:14:02.506Z,100166.81
2022-08-22T09:17:21.110Z,100169.38
2022-08-22T09:20:46.374Z,100178.66
2022-08-22T09:24:10.842Z,100177.50
2022-08-22T09:27:21.489Z,100174.94
2022-08-22T09:30:48.709Z,100186.00
2022-08-22T09:33:59.904Z,100179.50
2022-08-22T09:37:25.391Z,100170.66
2022-08-22T09:40:33.699Z,100174.69
2022-08-22T09:43:48.397Z,100174.25
2022-08-22T09:46:53.277Z,100163.47
2022-08-22T09:50:30.771Z,100146.81
2022-08-22T09:54:00.545Z,100152.16
2022-08-22T09:57:14.083Z,100146.69
2022-08-22T10:00:23.559Z,100141.97
2022-08-22T10:03:27.792Z,100134.25
2022-08-22T10:06:41.070Z,100131.81
2022-08-22T10:10:06.910Z,100124.72
2022-08-22T10:13:39.293Z,100118.63
2022-08-22T10:17:30.522Z,100108.22
2022-08-22T10:20:47.590Z,100115.00
2022-08-22T10:23:50.042Z,100104.31
2022-08-22T10:26:55.653Z,100107.69
2022-08-22T10:30:08.050Z,100107.97
2022-08-22T10:33:16.671Z,100101.09
2022-08-22T10:36:35.158Z,100095.16
2022-08-22T10:39:56.624Z,100100.06
2022-08-22T10:43:29.014Z,100101.84
2022-08-22T10:46:42.171Z,100107.38
2022-08-22T10:50:21.183Z,100096.59
2022-08-22T10:53:34.967Z,100096.56
2022-08-22T10:56:54.380Z,100095.59
2022-08-22T11:00:10.048Z,100100.13
2022-08-22T11:03:23.364Z,100093.69
2022-08-22T11:06:46.681Z,100088.22
2022-08-22T11:10:01.783Z,100092.81
2022-08-22T11:13:27.059Z,100087.25
2022-08-22T11:17:30.283Z,100088.22
2022-08-22T11:20:57.305Z,100084.47
2022-08-22T11:24:35.625Z,100079.41
2022-08-22T11:28:12.905Z,100075.09
2022-08-22T11:31:51.284Z,100072.56
2022-08-22T11:34:57.372Z,100073.28
2022-08-22T11:38:03.840Z,100061.41
2022-08-22T11:41:29.613Z,100068.16
2022-08-22T11:44:43.028Z,100066.31
2022-08-22T11:48:08.404Z,100066.50
2022-08-22T11:51:24.971Z,100061.56
2022-08-22T11:54:34.907Z,100059.19
2022-08-22T11:57:44.348Z,100061.72
2022-08-22T12:01:01.840Z,100053.69
2022-08-22T12:04:18.545Z,100059.28
2022-08-22T12:07:31.444Z,100055.81
2022-08-22T12:10:42.360Z,100050.88
2022-08-22T12:14:02.399Z,100046.88
2022-08-22T12:17:55.013Z,100052.00
2022-08-22T12:21:03.843Z,100045.81
2022-08-22T12:24:29.943Z,100041.97
2022-08-22T12:27:48.311Z,100040.59
2022-08-22T12:31:39.581Z,100032.06
2022-08-22T12:35:13.757Z,100039.22
2022-08-22T12:38:28.439Z,100030.41
2022-08-22T12:41:46.864Z,100030.88
2022-08-22T12:45:02.269Z,100020.97
2022-08-22T12:48:37.496Z,100018.81
2022-08-22T12:52:04.831Z,100017.44
2022-08-22T12:55:25.315Z,100022.28
2022-08-22T12:58:38.966Z,100014.41
2022-08-22T13:01:44.533Z,100015.34
2022-08-22T13:04:54.171Z,100009.53
2022-08-22T13:08:04.411Z,100009.63
2022-08-22T13:11:22.313Z,100004.50
2022-08-22T13:14:27.824Z,100007.59
2022-08-22T13:17:30.178Z,100009.47
2022-08-22T13:20:37.414Z,100001.97
2022-08-22T13:23:44.717Z,100007.69
2022-08-22T13:26:50.209Z,100004.13
2022-08-22T13:30:01.841Z,99999.84
2022-08-22T13:33:13.282Z,100001.69
2022-08-22T13:36:21.159Z,100005.94
2022-08-22T13:39:32.938Z,100001.16
2022-08-22T13:42:45.537Z,99995.59
2022-08-22T13:45:56.294Z,99995.28
2022-08-22T13:49:04.672Z,100001.53
2022-08-22T13:52:17.748Z,99993.84
2022-08-22T13:55:49.182Z,99989.38
2022-08-22T13:58:56.983Z,99986.44
2022-08-22T14:02:34.141Z,99989.38
2022-08-22T14:05:46.418Z,99982.38
2022-08-22T14:08:51.781Z,99981.31
2022-08-22T14:12:12.266Z,99977.75
2022-08-22T14:15:23.350Z,99974.75
2022-08-22T14:18:35.866Z,99975.22
2022-08-22T14:21:48.314Z,99971.41
2022-08-22T14:24:55.653Z,99971.44
2022-08-22T14:28:06.282Z,99972.72
2022-08-22T14:31:14.178Z,99965.41
2022-08-22T14:34:16.415Z,99965.84
2022-08-22T14:37:28.768Z,99965.41
2022-08-22T14:40:36.551Z,99963.59
2022-08-22T14:44:09.720Z,99961.84
2022-08-22T14:47:51.051Z,99946.81
2022-08-22T14:50:49.150Z,99945.69
2022-08-22T14:54:09.464Z,99945.19
2022-08-22T14:57:19.801Z,99940.28
2022-08-22T15:00:31.903Z,99947.03
2022-08-22T15:03:37.346Z,99938.84
2022-08-22T15:06:53.722Z,99943.50
2022-08-22T15:10:01.093Z,99934.28
2022-08-22T15:13:08.068Z,99938.69
2022-08-22T15:16:15.721Z,99937.63
2022-08-22T15:19:27.374Z,99934.75
2022-08-22T15:22:29.245Z,99930.69
2022-08-22T15:25:40.974Z,99933.13
2022-08-22T15:28:52.322Z,99929.91
2022-08-22T15:32:02.273Z,99932.41
2022-08-22T15:35:27.509Z,99932.00
2022-08-22T15:38:36.451Z,99931.19
2022-08-22T15:41:43.514Z,99924.34
2022-08-22T15:44:46.892Z,99925.72
2022-08-22T15:47:53.119Z,99919.94
2022-08-22T15:51:04.856Z,99920.75
2022-08-22T15:54:24.770Z,99923.13
2022-08-22T15:57:41.366Z,99918.50
2022-08-22T16:01:04.746Z,99924.34
2022-08-22T16:04:49.092Z,99921.41
2022-08-22T16:07:58.910Z,99920.00
2022-08-22T16:11:03.152Z,99918.00
2022-08-22T16:14:21.421Z,99919.38
2022-08-22T16:17:29.074Z,99917.75
2022-08-22T16:20:36.661Z,99913.19
2022-08-22T16:23:50.061Z,99911.88
2022-08-22T16:26:52.020Z,99912.81
2022-08-22T16:30:07.364Z,99908.19
2022-08-22T16:33:18.220Z,99905.25
2022-08-22T16:36:41.810Z,99906.28
2022-08-22T16:39:46.032Z,99909.47
2022-08-22T16:43:09.837Z,99906.63
2022-08-22T16:46:37.279Z,99911.09
2022-08-22T16:49:50.722Z,99908.81
2022-08-22T16:52:57.288Z,99906.88
2022-08-22T16:56:24.741Z,99908.78
2022-08-22T16:59:39.531Z,99912.22
2022-08-22T17:03:18.057Z,99911.31
2022-08-22T17:06:41.134Z,99912.63
2022-08-22T17:09:56.587Z,99919.97
2022-08-22T17:13:10.502Z,99927.31
2022-08-22T17:16:27.910Z,99925.50
2022-08-22T17:19:56.863Z,99918.72
2022-08-22T17:23:13.409Z,99923.16
2022-08-22T17:26:48.788Z,99922.16
2022-08-22T17:30:09.116Z,99917.88
2022-08-22T17:33:20.936Z,99931.06
2022-08-22T17:37:07.169Z,99924.03
2022-08-22T17:40:15.453Z,99925.34
2022-08-22T17:43:49.812Z,99928.06
2022-08-22T17:47:07.111Z,99927.06
2022-08-22T17:50:40.824Z,99935.97
2022-08-22T17:53:55.056Z,99935.56
2022-08-22T17:57:11.108Z,99937.78
2022-08-22T18:00:18.744Z,99929.94
2022-08-22T18:03:31.644Z,99934.31
2022-08-22T18:06:38.732Z,99931.50
2022-08-22T18:09:56.148Z,99940.38
2022-08-22T18:13:35.420Z,99942.72
2022-08-22T18:16:47.010Z,99933.25
2022-08-22T18:19:55.915Z,99941.03
2022-08-22T18:23:08.490Z,99941.81
2022-08-22T18:26:33.658Z,99940.28
2022-08-22T18:29:59.058Z,99933.38
2022-08-22T18:33:26.700Z,99940.59
2022-08-22T18:36:38.245Z,99943.06
2022-08-22T18:39:59.737Z,99946.66
2022-08-22T18:43:13.435Z,99944.59
2022-08-22T18:46:40.961Z,99947.47
2022-08-22T18:49:48.463Z,99954.44
2022-08-22T18:52:50.786Z,99955.94
2022-08-22T18:56:06.582Z,99959.00
2022-08-22T18:59:28.914Z,99960.47
2022-08-22T19:02:33.622Z,99958.31
2022-08-22T19:06:16.969Z,99954.13
2022-08-22T19:09:50.468Z,99962.22
2022-08-22T19:13:17.134Z,99964.28
2022-08-22T19:16:52.922Z,99963.84
2022-08-22T19:20:31.721Z,99972.31
2022-08-22T19:23:37.026Z,99972.72
2022-08-22T19:26:44.671Z,99966.72
2022-08-22T19:29:46.056Z,99970.00
2022-08-22T19:32:47.681Z,99974.09
2022-08-22T19:35:51.928Z,99974.88
2022-08-22T19:39:04.676Z,99970.84
2022-08-22T19:42:30.954Z,99977.78
2022-08-22T19:45:39.648Z,99983.81
2022-08-22T19:48:48.399Z,99977.88
2022-08-22T19:52:03.262Z,99983.69
2022-08-22T19:55:23.542Z,99980.09
2022-08-22T19:58:31.839Z,99986.97
2022-08-22T20:01:40.649Z,99978.84
2022-08-22T20:05:03.971Z,99986.13
2022-08-22T20:08:24.935Z,99992.56
2022-08-22T20:12:15.232Z,99989.47
2022-08-22T20:15:24.396Z,99986.91
2022-08-22T20:19:02.003Z,99992.25
2022-08-22T20:22:11.600Z,99991.13
2022-08-22T20:25:43.563Z,99990.19
2022-08-22T20:28:49.733Z,99983.03
2022-08-22T20:31:58.594Z,99985.19
2022-08-22T20:35:03.021Z,99984.44
2022-08-22T20:38:07.457Z,99978.88
2022-08-22T20:41:21.345Z,99989.44
2022-08-22T20:44:30.760Z,99989.63
2022-08-22T20:47:41.094Z,99996.41
2022-08-22T20:50:43.868Z,99992.19
2022-08-22T20:53:58.766Z,99989.28
2022-08-22T20:57:16.127Z,99989.88
2022-08-22T21:00:42.163Z,100000.72
2022-08-22T21:03:47.753Z,99994.56
2022-08-22T21:06:58.969Z,100003.19
2022-08-22T21:10:45.195Z,99985.59
2022-08-22T21:13:47.590Z,99997.38
2022-08-22T21:16:50.053Z,100000.06
2022-08-22T21:19:51.650Z,100001.19
2022-08-22T21:22:53.113Z,99998.34
2022-08-22T21:26:05.163Z,99997.16
2022-08-22T21:29:08.648Z,99996.38
2022-08-22T21:32:40.485Z,100009.66
2022-08-22T21:35:41.919Z,100004.16
2022-08-22T21:38:59.070Z,100009.66
2022-08-22T21:42:00.452Z,100002.50
2022-08-22T21:45:08.653Z,100004.84
2022-08-22T21:48:35.067Z,99990.88
2022-08-22T21:51:36.491Z,100003.19
2022-08-22T21:54:40.094Z,99996.22
2022-08-22T21:57:42.121Z,100002.59
2022-08-22T22:01:22.139Z,100004.34
2022-08-22T22:04:26.446Z,100001.09
2022-08-22T22:07:28.822Z,100006.06
2022-08-22T22:10:31.074Z,100011.91
2022-08-22T22:13:32.526Z,100014.22
2022-08-22T22:16:34.170Z,100006.94
2022-08-22T22:19:36.460Z,100021.00
2022-08-22T22:22:43.145Z,100027.28
2022-08-22T22:25:48.802Z,100027.53
2022-08-22T22:28:51.116Z,100035.31
2022-08-22T22:31:52.574Z,100038.44
2022-08-22T22:34:54.032Z,100035.19
2022-08-22T22:37:55.922Z,100039.63
2022-08-22T22:40:57.440Z,100035.31
2022-08-22T22:44:00.983Z,100049.59
2022-08-22T22:47:03.811Z,100048.59
2022-08-22T22:50:07.460Z,100048.53
2022-08-22T22:53:09.926Z,100058.84
2022-08-22T22:56:17.952Z,100070.97
2022-08-22T22:59:24.761Z,100069.31
2022-08-22T23:02:27.120Z,100073.06
2022-08-22T23:05:32.238Z,100069.19
2022-08-22T23:08:33.658Z,100077.88
2022-08-22T23:11:35.710Z,100073.25
2022-08-22T23:14:37.174Z,100071.78
2022-08-22T23:17:38.760Z,100077.84
2022-08-22T23:20:40.177Z,100083.19
2022-08-22T23:23:42.133Z,100085.66
2022-08-22T23:26:44.462Z,100084.25
2022-08-22T23:29:45.995Z,100078.91
2022-08-22T23:32:47.759Z,100069.91
2022-08-22T23:35:49.221Z,100073.38
2022-08-22T23:38:51.304Z,100072.72
2022-08-22T23:41:54.131Z,100066.50
2022-08-22T23:44:55.633Z,100073.44
